sensor_id;sensor_type;location;lat;lon;timestamp;P1;durP1;ratioP1;P2;durP2;ratioP2
19127;SDS011;9696;53.686;10.094;2022-07-05T00:02:00;3.80;;;1.63;;
19127;SDS011;9696;53.686;10.094;2022-07-05T00:04:29;4.73;;;0.97;;
19127;SDS011;9696;53.686;10.094;2022-07-05T00:06:57;2.00;;;1.20;;
19127;SDS011;9696;53.686;10.094;2022-07-05T00:09:43;2.97;;;1.10;;
19127;SDS011;9696;53.686;10.094;2022-07-05T00:12:12;2.43;;;1.37;;
19127;SDS011;9696;53.686;10.094;2022-07-05T00:14:41;1.13;;;1.03;;
19127;SDS011;9696;53.686;10.094;2022-07-05T00:17:12;2.87;;;1.50;;
19127;SDS011;9696;53.686;10.094;2022-07-05T00:19:41;4.50;;;1.20;;
19127;SDS011;9696;53.686;10.094;2022-07-05T00:22:09;3.17;;;1.20;;
19127;SDS011;9696;53.686;10.094;2022-07-05T00:24:38;1.87;;;1.10;;
19127;SDS011;9696;53.686;10.094;2022-07-05T00:27:07;4.13;;;1.40;;
19127;SDS011;9696;53.686;10.094;2022-07-05T00:29:35;4.03;;;1.23;;
19127;SDS011;9696;53.686;10.094;2022-07-05T00:32:04;5.40;;;1.33;;
19127;SDS011;9696;53.686;10.094;2022-07-05T00:34:34;3.50;;;1.20;;
19127;SDS011;9696;53.686;10.094;2022-07-05T00:37:02;1.70;;;1.30;;
19127;SDS011;9696;53.686;10.094;2022-07-05T00:39:31;2.00;;;1.40;;
19127;SDS011;9696;53.686;10.094;2022-07-05T00:42:00;1.87;;;1.07;;
19127;SDS011;9696;53.686;10.094;2022-07-05T00:44:29;7.20;;;1.20;;
19127;SDS011;9696;53.686;10.094;2022-07-05T00:46:58;4.17;;;1.20;;
19127;SDS011;9696;53.686;10.094;2022-07-05T00:49:27;3.97;;;1.37;;
19127;SDS011;9696;53.686;10.094;2022-07-05T00:51:56;3.10;;;1.37;;
19127;SDS011;9696;53.686;10.094;2022-07-05T00:54:46;3.33;;;1.23;;
19127;SDS011;9696;53.686;10.094;2022-07-05T00:57:15;2.90;;;1.47;;
19127;SDS011;9696;53.686;10.094;2022-07-05T00:59:46;4.20;;;1.47;;
19127;SDS011;9696;53.686;10.094;2022-07-05T01:02:15;1.93;;;1.20;;
19127;SDS011;9696;53.686;10.094;2022-07-05T01:04:47;8.17;;;1.20;;
19127;SDS011;9696;53.686;10.094;2022-07-05T01:07:18;2.50;;;1.20;;
19127;SDS011;9696;53.686;10.094;2022-07-05T01:09:48;7.93;;;1.50;;
19127;SDS011;9696;53.686;10.094;2022-07-05T01:12:17;1.33;;;1.20;;
19127;SDS011;9696;53.686;10.094;2022-07-05T01:14:45;2.30;;;1.20;;
19127;SDS011;9696;53.686;10.094;2022-07-05T01:17:14;7.43;;;1.50;;
19127;SDS011;9696;53.686;10.094;2022-07-05T01:19:44;10.70;;;1.47;;
19127;SDS011;9696;53.686;10.094;2022-07-05T01:22:14;2.43;;;1.60;;
19127;SDS011;9696;53.686;10.094;2022-07-05T01:24:46;2.73;;;1.40;;
19127;SDS011;9696;53.686;10.094;2022-07-05T01:27:16;4.57;;;1.27;;
19127;SDS011;9696;53.686;10.094;2022-07-05T01:29:45;4.37;;;1.33;;
19127;SDS011;9696;53.686;10.094;2022-07-05T01:32:14;3.70;;;1.40;;
19127;SDS011;9696;53.686;10.094;2022-07-05T01:34:42;3.70;;;1.40;;
19127;SDS011;9696;53.686;10.094;2022-07-05T01:37:11;9.67;;;1.40;;
19127;SDS011;9696;53.686;10.094;2022-07-05T01:39:40;3.67;;;1.73;;
19127;SDS011;9696;53.686;10.094;2022-07-05T01:42:12;4.03;;;1.80;;
19127;SDS011;9696;53.686;10.094;2022-07-05T01:44:40;3.23;;;1.50;;
19127;SDS011;9696;53.686;10.094;2022-07-05T01:47:09;3.43;;;1.80;;
19127;SDS011;9696;53.686;10.094;2022-07-05T01:49:39;3.20;;;1.70;;
19127;SDS011;9696;53.686;10.094;2022-07-05T01:52:11;3.87;;;1.73;;
19127;SDS011;9696;53.686;10.094;2022-07-05T01:54:40;4.50;;;1.90;;
19127;SDS011;9696;53.686;10.094;2022-07-05T01:57:11;1.97;;;1.33;;
19127;SDS011;9696;53.686;10.094;2022-07-05T01:59:40;12.07;;;1.80;;
19127;SDS011;9696;53.686;10.094;2022-07-05T02:02:08;4.97;;;1.63;;
19127;SDS011;9696;53.686;10.094;2022-07-05T02:04:37;2.87;;;1.60;;
19127;SDS011;9696;53.686;10.094;2022-07-05T02:07:07;6.27;;;1.97;;
19127;SDS011;9696;53.686;10.094;2022-07-05T02:09:36;6.00;;;1.60;;
19127;SDS011;9696;53.686;10.094;2022-07-05T02:12:04;3.83;;;1.97;;
19127;SDS011;9696;53.686;10.094;2022-07-05T02:14:35;3.77;;;1.63;;
19127;SDS011;9696;53.686;10.094;2022-07-05T02:17:03;3.70;;;1.63;;
19127;SDS011;9696;53.686;10.094;2022-07-05T02:19:32;2.63;;;1.83;;
19127;SDS011;9696;53.686;10.094;2022-07-05T02:22:03;4.03;;;1.83;;
19127;SDS011;9696;53.686;10.094;2022-07-05T02:24:31;5.10;;;1.57;;
19127;SDS011;9696;53.686;10.094;2022-07-05T02:27:00;7.27;;;2.20;;
19127;SDS011;9696;53.686;10.094;2022-07-05T02:29:28;4.77;;;1.97;;
19127;SDS011;9696;53.686;10.094;2022-07-05T02:31:58;7.83;;;1.90;;
19127;SDS011;9696;53.686;10.094;2022-07-05T02:34:27;6.30;;;1.77;;
19127;SDS011;9696;53.686;10.094;2022-07-05T02:36:55;4.53;;;2.10;;
19127;SDS011;9696;53.686;10.094;2022-07-05T02:39:23;2.37;;;1.53;;
19127;SDS011;9696;53.686;10.094;2022-07-05T02:41:52;7.20;;;2.00;;
19127;SDS011;9696;53.686;10.094;2022-07-05T02:44:20;1.60;;;1.50;;
19127;SDS011;9696;53.686;10.094;2022-07-05T02:46:48;5.20;;;1.80;;
19127;SDS011;9696;53.686;10.094;2022-07-05T02:49:18;2.40;;;1.67;;
19127;SDS011;9696;53.686;10.094;2022-07-05T02:51:47;4.27;;;1.80;;
19127;SDS011;9696;53.686;10.094;2022-07-05T02:54:15;3.87;;;2.07;;
19127;SDS011;9696;53.686;10.094;2022-07-05T02:56:43;8.37;;;2.43;;
19127;SDS011;9696;53.686;10.094;2022-07-05T02:59:12;7.37;;;1.90;;
19127;SDS011;9696;53.686;10.094;2022-07-05T03:01:40;5.67;;;1.73;;
19127;SDS011;9696;53.686;10.094;2022-07-05T03:04:09;4.03;;;2.20;;
19127;SDS011;9696;53.686;10.094;2022-07-05T03:06:38;6.50;;;2.20;;
19127;SDS011;9696;53.686;10.094;2022-07-05T03:09:07;7.47;;;2.30;;
19127;SDS011;9696;53.686;10.094;2022-07-05T03:11:36;3.40;;;2.00;;
19127;SDS011;9696;53.686;10.094;2022-07-05T03:14:04;2.53;;;1.80;;
19127;SDS011;9696;53.686;10.094;2022-07-05T03:16:33;4.33;;;2.20;;
19127;SDS011;9696;53.686;10.094;2022-07-05T03:19:01;2.70;;;1.70;;
19127;SDS011;9696;53.686;10.094;2022-07-05T03:21:30;5.27;;;2.03;;
19127;SDS011;9696;53.686;10.094;2022-07-05T03:24:00;3.53;;;1.90;;
19127;SDS011;9696;53.686;10.094;2022-07-05T03:26:28;4.63;;;2.17;;
19127;SDS011;9696;53.686;10.094;2022-07-05T03:28:56;14.93;;;2.37;;
19127;SDS011;9696;53.686;10.094;2022-07-05T03:31:25;6.67;;;2.33;;
19127;SDS011;9696;53.686;10.094;2022-07-05T03:33:53;6.80;;;2.47;;
19127;SDS011;9696;53.686;10.094;2022-07-05T03:36:22;3.67;;;2.37;;
19127;SDS011;9696;53.686;10.094;2022-07-05T03:38:51;2.57;;;1.70;;
19127;SDS011;9696;53.686;10.094;2022-07-05T03:41:21;4.30;;;2.70;;
19127;SDS011;9696;53.686;10.094;2022-07-05T03:43:49;4.43;;;2.43;;
19127;SDS011;9696;53.686;10.094;2022-07-05T03:46:17;6.50;;;2.37;;
19127;SDS011;9696;53.686;10.094;2022-07-05T03:48:46;6.63;;;2.57;;
19127;SDS011;9696;53.686;10.094;2022-07-05T03:51:14;5.87;;;2.60;;
19127;SDS011;9696;53.686;10.094;2022-07-05T03:53:43;3.97;;;2.27;;
19127;SDS011;9696;53.686;10.094;2022-07-05T03:56:11;5.80;;;2.37;;
19127;SDS011;9696;53.686;10.094;2022-07-05T03:58:42;7.10;;;2.63;;
19127;SDS011;9696;53.686;10.094;2022-07-05T04:01:10;6.10;;;2.23;;
19127;SDS011;9696;53.686;10.094;2022-07-05T04:03:39;8.70;;;2.17;;
19127;SDS011;9696;53.686;10.094;2022-07-05T04:06:07;7.10;;;3.27;;
19127;SDS011;9696;53.686;10.094;2022-07-05T04:08:36;3.93;;;2.17;;
19127;SDS011;9696;53.686;10.094;2022-07-05T04:11:05;9.93;;;2.80;;
19127;SDS011;9696;53.686;10.094;2022-07-05T04:13:34;4.47;;;2.03;;
19127;SDS011;9696;53.686;10.094;2022-07-05T04:16:04;9.20;;;2.60;;
19127;SDS011;9696;53.686;10.094;2022-07-05T04:18:32;9.13;;;2.67;;
19127;SDS011;9696;53.686;10.094;2022-07-05T04:21:01;8.87;;;2.50;;
19127;SDS011;9696;53.686;10.094;2022-07-05T04:23:30;5.33;;;2.30;;
19127;SDS011;9696;53.686;10.094;2022-07-05T04:25:59;6.37;;;2.80;;
19127;SDS011;9696;53.686;10.094;2022-07-05T04:28:28;9.90;;;2.40;;
19127;SDS011;9696;53.686;10.094;2022-07-05T04:30:57;6.47;;;2.80;;
19127;SDS011;9696;53.686;10.094;2022-07-05T04:33:27;6.57;;;2.47;;
19127;SDS011;9696;53.686;10.094;2022-07-05T04:35:55;6.70;;;2.30;;
19127;SDS011;9696;53.686;10.094;2022-07-05T04:38:24;6.93;;;2.70;;
19127;SDS011;9696;53.686;10.094;2022-07-05T04:40:52;11.23;;;3.20;;
19127;SDS011;9696;53.686;10.094;2022-07-05T04:43:21;7.30;;;2.57;;
19127;SDS011;9696;53.686;10.094;2022-07-05T04:45:49;5.00;;;2.40;;
19127;SDS011;9696;53.686;10.094;2022-07-05T04:48:21;4.87;;;2.20;;
19127;SDS011;9696;53.686;10.094;2022-07-05T04:50:51;4.53;;;2.40;;
19127;SDS011;9696;53.686;10.094;2022-07-05T04:53:20;5.13;;;2.13;;
19127;SDS011;9696;53.686;10.094;2022-07-05T04:55:48;6.23;;;2.20;;
19127;SDS011;9696;53.686;10.094;2022-07-05T04:58:16;3.43;;;1.90;;
19127;SDS011;9696;53.686;10.094;2022-07-05T05:00:45;9.90;;;1.90;;
19127;SDS011;9696;53.686;10.094;2022-07-05T05:03:14;5.27;;;1.67;;
19127;SDS011;9696;53.686;10.094;2022-07-05T05:05:42;2.80;;;1.73;;
19127;SDS011;9696;53.686;10.094;2022-07-05T05:08:12;9.17;;;2.07;;
19127;SDS011;9696;53.686;10.094;2022-07-05T05:10:40;3.43;;;1.50;;
19127;SDS011;9696;53.686;10.094;2022-07-05T05:13:09;5.77;;;1.70;;
19127;SDS011;9696;53.686;10.094;2022-07-05T05:15:37;4.63;;;1.30;;
19127;SDS011;9696;53.686;10.094;2022-07-05T05:18:06;4.33;;;1.20;;
19127;SDS011;9696;53.686;10.094;2022-07-05T05:20:34;2.13;;;1.30;;
19127;SDS011;9696;53.686;10.094;2022-07-05T05:23:06;5.90;;;1.57;;
19127;SDS011;9696;53.686;10.094;2022-07-05T05:25:36;3.17;;;1.07;;
19127;SDS011;9696;53.686;10.094;2022-07-05T05:28:04;2.93;;;1.20;;
19127;SDS011;9696;53.686;10.094;2022-07-05T05:30:33;1.85;;;0.80;;
19127;SDS011;9696;53.686;10.094;2022-07-05T05:33:01;3.13;;;0.98;;
19127;SDS011;9696;53.686;10.094;2022-07-05T05:35:30;8.23;;;1.17;;
19127;SDS011;9696;53.686;10.094;2022-07-05T05:37:58;8.82;;;0.77;;
19127;SDS011;9696;53.686;10.094;2022-07-05T05:40:27;2.35;;;1.00;;
19127;SDS011;9696;53.686;10.094;2022-07-05T05:42:57;2.58;;;1.10;;
19127;SDS011;9696;53.686;10.094;2022-07-05T05:45:25;3.13;;;0.95;;
19127;SDS011;9696;53.686;10.094;2022-07-05T05:47:55;4.68;;;0.95;;
19127;SDS011;9696;53.686;10.094;2022-07-05T05:50:26;3.63;;;0.90;;
19127;SDS011;9696;53.686;10.094;2022-07-05T05:52:57;4.57;;;0.75;;
19127;SDS011;9696;53.686;10.094;2022-07-05T05:55:27;2.13;;;0.80;;
19127;SDS011;9696;53.686;10.094;2022-07-05T05:57:57;1.75;;;0.80;;
19127;SDS011;9696;53.686;10.094;2022-07-05T06:00:38;5.95;;;0.93;;
19127;SDS011;9696;53.686;10.094;2022-07-05T06:03:07;6.28;;;1.00;;
19127;SDS011;9696;53.686;10.094;2022-07-05T06:05:35;4.25;;;0.90;;
19127;SDS011;9696;53.686;10.094;2022-07-05T06:08:04;6.93;;;1.00;;
19127;SDS011;9696;53.686;10.094;2022-07-05T06:10:33;2.08;;;0.77;;
19127;SDS011;9696;53.686;10.094;2022-07-05T06:13:04;3.42;;;1.00;;
19127;SDS011;9696;53.686;10.094;2022-07-05T06:15:32;2.10;;;0.60;;
19127;SDS011;9696;53.686;10.094;2022-07-05T06:18:01;4.22;;;0.80;;
19127;SDS011;9696;53.686;10.094;2022-07-05T06:20:30;4.97;;;1.10;;
19127;SDS011;9696;53.686;10.094;2022-07-05T06:23:00;4.30;;;1.05;;
19127;SDS011;9696;53.686;10.094;2022-07-05T06:25:29;4.00;;;0.80;;
19127;SDS011;9696;53.686;10.094;2022-07-05T06:27:59;4.75;;;0.80;;
19127;SDS011;9696;53.686;10.094;2022-07-05T06:30:31;0.88;;;0.70;;
19127;SDS011;9696;53.686;10.094;2022-07-05T06:33:00;5.18;;;0.85;;
19127;SDS011;9696;53.686;10.094;2022-07-05T06:35:34;7.30;;;0.90;;
19127;SDS011;9696;53.686;10.094;2022-07-05T06:38:03;2.58;;;0.77;;
19127;SDS011;9696;53.686;10.094;2022-07-05T06:40:33;3.55;;;0.70;;
19127;SDS011;9696;53.686;10.094;2022-07-05T06:43:02;1.85;;;0.80;;
19127;SDS011;9696;53.686;10.094;2022-07-05T06:45:32;3.22;;;0.80;;
19127;SDS011;9696;53.686;10.094;2022-07-05T06:48:02;7.82;;;0.70;;
19127;SDS011;9696;53.686;10.094;2022-07-05T06:50:32;1.88;;;0.60;;
19127;SDS011;9696;53.686;10.094;2022-07-05T06:53:02;3.05;;;0.77;;
19127;SDS011;9696;53.686;10.094;2022-07-05T06:55:31;3.53;;;0.88;;
19127;SDS011;9696;53.686;10.094;2022-07-05T06:58:00;1.33;;;0.68;;
19127;SDS011;9696;53.686;10.094;2022-07-05T07:00:40;2.35;;;0.57;;
19127;SDS011;9696;53.686;10.094;2022-07-05T07:03:29;1.15;;;0.80;;
19127;SDS011;9696;53.686;10.094;2022-07-05T07:06:17;3.50;;;0.65;;
19127;SDS011;9696;53.686;10.094;2022-07-05T07:08:46;8.43;;;1.00;;
19127;SDS011;9696;53.686;10.094;2022-07-05T07:11:31;3.30;;;0.90;;
19127;SDS011;9696;53.686;10.094;2022-07-05T07:14:00;8.85;;;0.85;;
19127;SDS011;9696;53.686;10.094;2022-07-05T07:16:30;1.92;;;0.80;;
19127;SDS011;9696;53.686;10.094;2022-07-05T07:18:59;4.57;;;1.23;;
19127;SDS011;9696;53.686;10.094;2022-07-05T07:21:38;2.05;;;0.65;;
19127;SDS011;9696;53.686;10.094;2022-07-05T07:24:08;3.78;;;0.90;;
19127;SDS011;9696;53.686;10.094;2022-07-05T07:26:36;5.35;;;0.88;;
19127;SDS011;9696;53.686;10.094;2022-07-05T07:29:19;3.97;;;0.73;;
19127;SDS011;9696;53.686;10.094;2022-07-05T07:31:52;1.88;;;0.60;;
19127;SDS011;9696;53.686;10.094;2022-07-05T07:34:21;4.00;;;0.70;;
19127;SDS011;9696;53.686;10.094;2022-07-05T07:36:49;4.00;;;0.40;;
19127;SDS011;9696;53.686;10.094;2022-07-05T07:39:18;3.08;;;0.77;;
19127;SDS011;9696;53.686;10.094;2022-07-05T07:41:46;4.47;;;0.75;;
19127;SDS011;9696;53.686;10.094;2022-07-05T07:44:15;2.97;;;0.63;;
19127;SDS011;9696;53.686;10.094;2022-07-05T07:46:44;5.00;;;0.70;;
19127;SDS011;9696;53.686;10.094;2022-07-05T07:49:14;3.58;;;0.40;;
19127;SDS011;9696;53.686;10.094;2022-07-05T07:51:46;2.45;;;0.57;;
19127;SDS011;9696;53.686;10.094;2022-07-05T07:54:15;0.85;;;0.40;;
19127;SDS011;9696;53.686;10.094;2022-07-05T07:56:43;4.35;;;0.52;;
19127;SDS011;9696;53.686;10.094;2022-07-05T07:59:12;2.05;;;0.38;;
19127;SDS011;9696;53.686;10.094;2022-07-05T08:01:40;3.25;;;0.70;;
19127;SDS011;9696;53.686;10.094;2022-07-05T08:04:11;1.45;;;0.40;;
19127;SDS011;9696;53.686;10.094;2022-07-05T08:06:43;2.30;;;0.30;;
19127;SDS011;9696;53.686;10.094;2022-07-05T08:09:11;2.13;;;0.50;;
19127;SDS011;9696;53.686;10.094;2022-07-05T08:11:43;3.13;;;0.35;;
19127;SDS011;9696;53.686;10.094;2022-07-05T08:14:12;3.15;;;0.30;;
19127;SDS011;9696;53.686;10.094;2022-07-05T08:16:41;2.63;;;0.40;;
19127;SDS011;9696;53.686;10.094;2022-07-05T08:19:16;0.52;;;0.30;;
19127;SDS011;9696;53.686;10.094;2022-07-05T08:22:04;3.10;;;0.47;;
19127;SDS011;9696;53.686;10.094;2022-07-05T08:24:35;4.57;;;0.65;;
19127;SDS011;9696;53.686;10.094;2022-07-05T08:27:05;2.03;;;0.20;;
19127;SDS011;9696;53.686;10.094;2022-07-05T08:29:34;1.98;;;0.50;;
19127;SDS011;9696;53.686;10.094;2022-07-05T08:32:03;3.92;;;0.50;;
19127;SDS011;9696;53.686;10.094;2022-07-05T08:34:36;1.48;;;0.43;;
19127;SDS011;9696;53.686;10.094;2022-07-05T08:37:06;1.60;;;0.45;;
19127;SDS011;9696;53.686;10.094;2022-07-05T08:39:40;2.05;;;0.50;;
19127;SDS011;9696;53.686;10.094;2022-07-05T08:42:09;1.52;;;0.40;;
19127;SDS011;9696;53.686;10.094;2022-07-05T08:44:38;1.92;;;0.40;;
19127;SDS011;9696;53.686;10.094;2022-07-05T08:47:09;0.35;;;0.35;;
19127;SDS011;9696;53.686;10.094;2022-07-05T08:49:38;4.78;;;0.40;;
19127;SDS011;9696;53.686;10.094;2022-07-05T08:52:11;2.38;;;0.45;;
19127;SDS011;9696;53.686;10.094;2022-07-05T08:54:39;0.65;;;0.38;;
19127;SDS011;9696;53.686;10.094;2022-07-05T08:57:08;11.00;;;0.40;;
19127;SDS011;9696;53.686;10.094;2022-07-05T08:59:39;5.07;;;0.32;;
19127;SDS011;9696;53.686;10.094;2022-07-05T09:02:10;2.10;;;0.52;;
19127;SDS011;9696;53.686;10.094;2022-07-05T09:04:42;3.38;;;0.50;;
19127;SDS011;9696;53.686;10.094;2022-07-05T09:07:16;0.73;;;0.40;;
19127;SDS011;9696;53.686;10.094;2022-07-05T09:09:47;0.30;;;0.30;;
19127;SDS011;9696;53.686;10.094;2022-07-05T09:12:18;1.65;;;0.50;;
19127;SDS011;9696;53.686;10.094;2022-07-05T09:14:51;2.05;;;0.50;;
19127;SDS011;9696;53.686;10.094;2022-07-05T09:17:20;0.20;;;0.13;;
19127;SDS011;9696;53.686;10.094;2022-07-05T09:20:05;1.63;;;0.60;;
19127;SDS011;9696;53.686;10.094;2022-07-05T09:22:43;3.28;;;0.57;;
19127;SDS011;9696;53.686;10.094;2022-07-05T09:25:13;3.75;;;0.60;;
19127;SDS011;9696;53.686;10.094;2022-07-05T09:27:47;1.05;;;0.20;;
19127;SDS011;9696;53.686;10.094;2022-07-05T09:30:30;0.43;;;0.30;;
19127;SDS011;9696;53.686;10.094;2022-07-05T09:32:59;0.93;;;0.40;;
19127;SDS011;9696;53.686;10.094;2022-07-05T09:35:28;4.05;;;0.20;;
19127;SDS011;9696;53.686;10.094;2022-07-05T09:38:00;0.77;;;0.10;;
19127;SDS011;9696;53.686;10.094;2022-07-05T09:40:30;8.15;;;0.45;;
19127;SDS011;9696;53.686;10.094;2022-07-05T09:43:12;1.20;;;0.20;;
19127;SDS011;9696;53.686;10.094;2022-07-05T09:45:49;0.52;;;0.20;;
19127;SDS011;9696;53.686;10.094;2022-07-05T09:48:20;0.22;;;0.15;;
19127;SDS011;9696;53.686;10.094;2022-07-05T09:50:55;0.22;;;0.10;;
19127;SDS011;9696;53.686;10.094;2022-07-05T09:53:54;0.40;;;0.20;;
19127;SDS011;9696;53.686;10.094;2022-07-05T09:56:42;0.50;;;0.20;;
19127;SDS011;9696;53.686;10.094;2022-07-05T09:59:12;1.25;;;0.30;;
19127;SDS011;9696;53.686;10.094;2022-07-05T10:01:42;2.65;;;0.35;;
19127;SDS011;9696;53.686;10.094;2022-07-05T10:04:10;2.10;;;0.30;;
19127;SDS011;9696;53.686;10.094;2022-07-05T10:06:39;1.10;;;0.28;;
19127;SDS011;9696;53.686;10.094;2022-07-05T10:09:10;0.47;;;0.30;;
19127;SDS011;9696;53.686;10.094;2022-07-05T10:11:41;0.30;;;0.20;;
19127;SDS011;9696;53.686;10.094;2022-07-05T10:14:11;0.52;;;0.20;;
19127;SDS011;9696;53.686;10.094;2022-07-05T10:16:45;1.08;;;0.30;;
19127;SDS011;9696;53.686;10.094;2022-07-05T10:19:17;1.00;;;0.20;;
19127;SDS011;9696;53.686;10.094;2022-07-05T10:21:47;1.63;;;0.30;;
19127;SDS011;9696;53.686;10.094;2022-07-05T10:24:38;2.45;;;0.28;;
19127;SDS011;9696;53.686;10.094;2022-07-05T10:27:09;3.08;;;0.40;;
19127;SDS011;9696;53.686;10.094;2022-07-05T10:29:38;1.65;;;0.30;;
19127;SDS011;9696;53.686;10.094;2022-07-05T10:32:07;1.42;;;0.30;;
19127;SDS011;9696;53.686;10.094;2022-07-05T10:34:37;1.08;;;0.20;;
19127;SDS011;9696;53.686;10.094;2022-07-05T10:37:27;1.20;;;0.20;;
19127;SDS011;9696;53.686;10.094;2022-07-05T10:39:58;0.63;;;0.20;;
19127;SDS011;9696;53.686;10.094;2022-07-05T10:42:31;0.32;;;0.25;;
19127;SDS011;9696;53.686;10.094;2022-07-05T10:45:02;1.05;;;0.20;;
19127;SDS011;9696;53.686;10.094;2022-07-05T10:50:42;1.30;;;0.30;;
19127;SDS011;9696;53.686;10.094;2022-07-05T10:53:16;1.88;;;0.30;;
19127;SDS011;9696;53.686;10.094;2022-07-05T10:55:51;5.00;;;0.30;;
19127;SDS011;9696;53.686;10.094;2022-07-05T10:58:21;1.85;;;0.20;;
19127;SDS011;9696;53.686;10.094;2022-07-05T11:06:59;5.18;;;0.60;;
19127;SDS011;9696;53.686;10.094;2022-07-05T11:09:27;4.05;;;0.52;;
19127;SDS011;9696;53.686;10.094;2022-07-05T11:12:07;0.68;;;0.20;;
19127;SDS011;9696;53.686;10.094;2022-07-05T11:14:54;1.00;;;0.20;;
19127;SDS011;9696;53.686;10.094;2022-07-05T11:17:33;0.50;;;0.10;;
19127;SDS011;9696;53.686;10.094;2022-07-05T11:20:26;1.38;;;0.45;;
19127;SDS011;9696;53.686;10.094;2022-07-05T11:23:08;2.42;;;0.20;;
19127;SDS011;9696;53.686;10.094;2022-07-05T11:25:42;2.17;;;0.28;;
19127;SDS011;9696;53.686;10.094;2022-07-05T11:28:21;0.65;;;0.20;;
19127;SDS011;9696;53.686;10.094;2022-07-05T11:30:55;8.70;;;0.38;;
19127;SDS011;9696;53.686;10.094;2022-07-05T11:33:31;0.70;;;0.25;;
19127;SDS011;9696;53.686;10.094;2022-07-05T11:36:04;3.50;;;0.30;;
19127;SDS011;9696;53.686;10.094;2022-07-05T11:38:35;0.57;;;0.20;;
19127;SDS011;9696;53.686;10.094;2022-07-05T11:41:39;1.52;;;0.30;;
19127;SDS011;9696;53.686;10.094;2022-07-05T11:44:10;1.50;;;0.35;;
19127;SDS011;9696;53.686;10.094;2022-07-05T11:46:40;1.58;;;0.60;;
19127;SDS011;9696;53.686;10.094;2022-07-05T11:49:18;1.83;;;0.30;;
19127;SDS011;9696;53.686;10.094;2022-07-05T11:51:54;2.63;;;0.30;;
19127;SDS011;9696;53.686;10.094;2022-07-05T11:54:24;0.93;;;0.20;;
19127;SDS011;9696;53.686;10.094;2022-07-05T11:56:53;1.00;;;0.32;;
19127;SDS011;9696;53.686;10.094;2022-07-05T11:59:24;2.83;;;0.30;;
19127;SDS011;9696;53.686;10.094;2022-07-05T12:01:52;1.73;;;0.35;;
19127;SDS011;9696;53.686;10.094;2022-07-05T12:04:22;1.75;;;0.25;;
19127;SDS011;9696;53.686;10.094;2022-07-05T12:06:52;0.90;;;0.30;;
19127;SDS011;9696;53.686;10.094;2022-07-05T12:09:22;1.38;;;0.60;;
19127;SDS011;9696;53.686;10.094;2022-07-05T12:11:53;0.28;;;0.25;;
19127;SDS011;9696;53.686;10.094;2022-07-05T12:14:47;0.70;;;0.30;;
19127;SDS011;9696;53.686;10.094;2022-07-05T12:17:17;0.15;;;0.10;;
19127;SDS011;9696;53.686;10.094;2022-07-05T12:19:52;7.90;;;0.30;;
19127;SDS011;9696;53.686;10.094;2022-07-05T12:22:28;6.32;;;0.30;;
19127;SDS011;9696;53.686;10.094;2022-07-05T12:24:57;5.18;;;0.20;;
19127;SDS011;9696;53.686;10.094;2022-07-05T12:27:27;1.90;;;0.20;;
19127;SDS011;9696;53.686;10.094;2022-07-05T12:29:57;1.00;;;0.25;;
19127;SDS011;9696;53.686;10.094;2022-07-05T12:32:28;1.90;;;0.50;;
19127;SDS011;9696;53.686;10.094;2022-07-05T12:34:57;1.20;;;0.22;;
19127;SDS011;9696;53.686;10.094;2022-07-05T12:37:32;3.17;;;0.50;;
19127;SDS011;9696;53.686;10.094;2022-07-05T12:40:02;0.47;;;0.22;;
19127;SDS011;9696;53.686;10.094;2022-07-05T12:42:35;2.50;;;0.43;;
19127;SDS011;9696;53.686;10.094;2022-07-05T12:45:13;1.90;;;0.45;;
19127;SDS011;9696;53.686;10.094;2022-07-05T12:47:49;1.55;;;0.38;;
19127;SDS011;9696;53.686;10.094;2022-07-05T12:50:21;0.20;;;0.20;;
19127;SDS011;9696;53.686;10.094;2022-07-05T12:52:53;7.65;;;0.40;;
19127;SDS011;9696;53.686;10.094;2022-07-05T12:55:24;2.97;;;0.35;;
19127;SDS011;9696;53.686;10.094;2022-07-05T12:58:10;1.13;;;0.38;;
19127;SDS011;9696;53.686;10.094;2022-07-05T13:00:40;1.00;;;0.32;;
19127;SDS011;9696;53.686;10.094;2022-07-05T13:03:08;0.93;;;0.25;;
19127;SDS011;9696;53.686;10.094;2022-07-05T13:05:37;2.80;;;0.30;;
19127;SDS011;9696;53.686;10.094;2022-07-05T13:08:05;2.92;;;0.50;;
19127;SDS011;9696;53.686;10.094;2022-07-05T13:10:34;6.00;;;0.32;;
19127;SDS011;9696;53.686;10.094;2022-07-05T13:13:06;1.27;;;0.30;;
19127;SDS011;9696;53.686;10.094;2022-07-05T13:15:35;0.20;;;0.20;;
19127;SDS011;9696;53.686;10.094;2022-07-05T13:18:06;2.08;;;0.57;;
19127;SDS011;9696;53.686;10.094;2022-07-05T13:20:35;0.63;;;0.30;;
19127;SDS011;9696;53.686;10.094;2022-07-05T13:23:04;2.05;;;0.73;;
19127;SDS011;9696;53.686;10.094;2022-07-05T13:25:32;1.13;;;0.50;;
19127;SDS011;9696;53.686;10.094;2022-07-05T13:28:01;5.40;;;0.50;;
19127;SDS011;9696;53.686;10.094;2022-07-05T13:30:29;2.35;;;0.43;;
19127;SDS011;9696;53.686;10.094;2022-07-05T13:32:58;1.83;;;0.60;;
19127;SDS011;9696;53.686;10.094;2022-07-05T13:35:27;1.83;;;0.50;;
19127;SDS011;9696;53.686;10.094;2022-07-05T13:37:56;4.30;;;0.40;;
19127;SDS011;9696;53.686;10.094;2022-07-05T13:40:24;1.77;;;0.40;;
19127;SDS011;9696;53.686;10.094;2022-07-05T13:42:53;6.15;;;0.47;;
19127;SDS011;9696;53.686;10.094;2022-07-05T13:45:21;1.33;;;0.40;;
19127;SDS011;9696;53.686;10.094;2022-07-05T13:47:55;5.93;;;0.60;;
19127;SDS011;9696;53.686;10.094;2022-07-05T13:50:23;1.63;;;0.40;;
19127;SDS011;9696;53.686;10.094;2022-07-05T13:53:03;1.00;;;0.35;;
19127;SDS011;9696;53.686;10.094;2022-07-05T13:55:31;2.53;;;0.30;;
19127;SDS011;9696;53.686;10.094;2022-07-05T13:58:02;3.28;;;0.45;;
19127;SDS011;9696;53.686;10.094;2022-07-05T14:00:31;1.58;;;0.28;;
19127;SDS011;9696;53.686;10.094;2022-07-05T14:02:59;1.75;;;0.40;;
19127;SDS011;9696;53.686;10.094;2022-07-05T14:05:31;0.63;;;0.20;;
19127;SDS011;9696;53.686;10.094;2022-07-05T14:08:00;1.20;;;0.30;;
19127;SDS011;9696;53.686;10.094;2022-07-05T14:10:30;1.00;;;0.32;;
19127;SDS011;9696;53.686;10.094;2022-07-05T14:12:58;3.70;;;0.65;;
19127;SDS011;9696;53.686;10.094;2022-07-05T14:15:27;1.40;;;0.50;;
19127;SDS011;9696;53.686;10.094;2022-07-05T14:17:55;1.23;;;0.40;;
19127;SDS011;9696;53.686;10.094;2022-07-05T14:20:25;1.27;;;0.40;;
19127;SDS011;9696;53.686;10.094;2022-07-05T14:22:54;1.65;;;0.52;;
19127;SDS011;9696;53.686;10.094;2022-07-05T14:25:23;4.75;;;0.50;;
19127;SDS011;9696;53.686;10.094;2022-07-05T14:27:53;5.38;;;0.50;;
19127;SDS011;9696;53.686;10.094;2022-07-05T14:30:21;1.92;;;0.30;;
19127;SDS011;9696;53.686;10.094;2022-07-05T14:32:50;3.28;;;0.35;;
19127;SDS011;9696;53.686;10.094;2022-07-05T14:35:19;1.33;;;0.50;;
19127;SDS011;9696;53.686;10.094;2022-07-05T14:37:47;3.08;;;0.50;;
19127;SDS011;9696;53.686;10.094;2022-07-05T14:40:16;1.13;;;0.40;;
19127;SDS011;9696;53.686;10.094;2022-07-05T14:42:44;0.85;;;0.28;;
19127;SDS011;9696;53.686;10.094;2022-07-05T14:45:15;4.80;;;0.95;;
19127;SDS011;9696;53.686;10.094;2022-07-05T14:47:43;3.00;;;0.38;;
19127;SDS011;9696;53.686;10.094;2022-07-05T14:50:12;1.30;;;0.40;;
19127;SDS011;9696;53.686;10.094;2022-07-05T14:52:41;1.05;;;0.40;;
19127;SDS011;9696;53.686;10.094;2022-07-05T14:55:09;0.45;;;0.30;;
19127;SDS011;9696;53.686;10.094;2022-07-05T14:57:38;2.92;;;0.40;;
19127;SDS011;9696;53.686;10.094;2022-07-05T15:00:08;1.75;;;0.40;;
19127;SDS011;9696;53.686;10.094;2022-07-05T15:02:40;2.63;;;0.63;;
19127;SDS011;9696;53.686;10.094;2022-07-05T15:05:09;2.25;;;0.68;;
19127;SDS011;9696;53.686;10.094;2022-07-05T15:07:39;1.75;;;0.63;;
19127;SDS011;9696;53.686;10.094;2022-07-05T15:10:08;1.95;;;0.63;;
19127;SDS011;9696;53.686;10.094;2022-07-05T15:12:37;4.25;;;0.40;;
19127;SDS011;9696;53.686;10.094;2022-07-05T15:15:06;2.22;;;0.50;;
19127;SDS011;9696;53.686;10.094;2022-07-05T15:17:35;7.85;;;0.65;;
19127;SDS011;9696;53.686;10.094;2022-07-05T15:20:06;1.42;;;0.60;;